sensor_id;sensor_type;location;lat;lon;timestamp;P1;durP1;ratioP1;P2;durP2;ratioP2
3487;SDS011;38546;48.170;11.724;2023-05-07T00:02:21;10.00;;;7.70;;
3487;SDS011;38546;48.170;11.724;2023-05-07T00:05:11;11.63;;;8.57;;
3487;SDS011;38546;48.170;11.724;2023-05-07T00:08:01;8.40;;;7.33;;
3487;SDS011;38546;48.170;11.724;2023-05-07T00:10:50;11.30;;;9.17;;
3487;SDS011;38546;48.170;11.724;2023-05-07T00:13:39;11.07;;;7.90;;
3487;SDS011;38546;48.170;11.724;2023-05-07T00:16:28;13.27;;;8.37;;
3487;SDS011;38546;48.170;11.724;2023-05-07T00:19:17;12.63;;;9.67;;
3487;SDS011;38546;48.170;11.724;2023-05-07T00:22:06;8.70;;;7.60;;
3487;SDS011;38546;48.170;11.724;2023-05-07T00:24:56;10.10;;;8.10;;
3487;SDS011;38546;48.170;11.724;2023-05-07T00:27:46;12.47;;;9.33;;
3487;SDS011;38546;48.170;11.724;2023-05-07T00:30:35;13.23;;;9.23;;
3487;SDS011;38546;48.170;11.724;2023-05-07T00:33:24;12.83;;;10.60;;
3487;SDS011;38546;48.170;11.724;2023-05-07T00:36:15;10.07;;;8.67;;
3487;SDS011;38546;48.170;11.724;2023-05-07T00:39:04;11.90;;;8.90;;
3487;SDS011;38546;48.170;11.724;2023-05-07T00:41:53;10.87;;;8.50;;
3487;SDS011;38546;48.170;11.724;2023-05-07T00:44:42;12.10;;;8.47;;
3487;SDS011;38546;48.170;11.724;2023-05-07T00:47:32;10.57;;;8.63;;
3487;SDS011;38546;48.170;11.724;2023-05-07T00:50:21;11.97;;;8.80;;
3487;SDS011;38546;48.170;11.724;2023-05-07T00:53:11;9.10;;;8.10;;
3487;SDS011;38546;48.170;11.724;2023-05-07T00:56:01;12.17;;;8.60;;
3487;SDS011;38546;48.170;11.724;2023-05-07T00:58:51;9.33;;;8.07;;
3487;SDS011;38546;48.170;11.724;2023-05-07T01:01:40;12.63;;;8.30;;
3487;SDS011;38546;48.170;11.724;2023-05-07T01:04:30;13.00;;;9.30;;
3487;SDS011;38546;48.170;11.724;2023-05-07T01:07:19;11.17;;;8.67;;
3487;SDS011;38546;48.170;11.724;2023-05-07T01:10:09;10.83;;;7.63;;
3487;SDS011;38546;48.170;11.724;2023-05-07T01:13:00;13.60;;;8.23;;
3487;SDS011;38546;48.170;11.724;2023-05-07T01:15:50;12.50;;;8.57;;
3487;SDS011;38546;48.170;11.724;2023-05-07T01:18:39;11.40;;;8.03;;
3487;SDS011;38546;48.170;11.724;2023-05-07T01:21:29;10.10;;;8.97;;
3487;SDS011;38546;48.170;11.724;2023-05-07T01:24:23;12.10;;;9.03;;
3487;SDS011;38546;48.170;11.724;2023-05-07T01:27:12;12.63;;;9.97;;
3487;SDS011;38546;48.170;11.724;2023-05-07T01:30:02;9.10;;;7.93;;
3487;SDS011;38546;48.170;11.724;2023-05-07T01:33:01;12.27;;;8.60;;
3487;SDS011;38546;48.170;11.724;2023-05-07T01:35:57;10.50;;;8.33;;
3487;SDS011;38546;48.170;11.724;2023-05-07T01:38:52;9.33;;;8.33;;
3487;SDS011;38546;48.170;11.724;2023-05-07T01:41:42;11.60;;;8.50;;
3487;SDS011;38546;48.170;11.724;2023-05-07T01:44:32;10.60;;;8.40;;
3487;SDS011;38546;48.170;11.724;2023-05-07T01:47:22;11.50;;;8.20;;
3487;SDS011;38546;48.170;11.724;2023-05-07T01:50:13;10.03;;;7.80;;
3487;SDS011;38546;48.170;11.724;2023-05-07T01:53:07;11.43;;;8.30;;
3487;SDS011;38546;48.170;11.724;2023-05-07T01:55:56;12.50;;;7.97;;
3487;SDS011;38546;48.170;11.724;2023-05-07T01:58:45;11.50;;;8.20;;
3487;SDS011;38546;48.170;11.724;2023-05-07T02:01:35;10.23;;;7.87;;
3487;SDS011;38546;48.170;11.724;2023-05-07T02:04:24;10.03;;;8.07;;
3487;SDS011;38546;48.170;11.724;2023-05-07T02:07:14;9.03;;;7.70;;
3487;SDS011;38546;48.170;11.724;2023-05-07T02:10:03;9.33;;;8.43;;
3487;SDS011;38546;48.170;11.724;2023-05-07T02:12:53;9.50;;;8.50;;
3487;SDS011;38546;48.170;11.724;2023-05-07T02:15:42;9.50;;;7.30;;
3487;SDS011;38546;48.170;11.724;2023-05-07T02:18:35;10.57;;;8.60;;
3487;SDS011;38546;48.170;11.724;2023-05-07T02:21:25;11.90;;;8.43;;
3487;SDS011;38546;48.170;11.724;2023-05-07T02:24:14;13.80;;;9.60;;
3487;SDS011;38546;48.170;11.724;2023-05-07T02:27:04;10.33;;;9.00;;
3487;SDS011;38546;48.170;11.724;2023-05-07T02:29:53;13.63;;;8.87;;
3487;SDS011;38546;48.170;11.724;2023-05-07T02:32:43;9.30;;;8.27;;
3487;SDS011;38546;48.170;11.724;2023-05-07T02:35:32;9.60;;;8.03;;
3487;SDS011;38546;48.170;11.724;2023-05-07T02:38:21;11.67;;;8.60;;
3487;SDS011;38546;48.170;11.724;2023-05-07T02:41:11;11.67;;;8.90;;
3487;SDS011;38546;48.170;11.724;2023-05-07T02:44:00;11.40;;;9.27;;
3487;SDS011;38546;48.170;11.724;2023-05-07T02:46:50;10.10;;;7.80;;
3487;SDS011;38546;48.170;11.724;2023-05-07T02:49:39;10.33;;;7.90;;
3487;SDS011;38546;48.170;11.724;2023-05-07T02:52:28;9.13;;;8.10;;
3487;SDS011;38546;48.170;11.724;2023-05-07T02:55:17;8.70;;;7.80;;
3487;SDS011;38546;48.170;11.724;2023-05-07T02:58:07;9.03;;;7.57;;
3487;SDS011;38546;48.170;11.724;2023-05-07T03:00:56;9.33;;;7.30;;
3487;SDS011;38546;48.170;11.724;2023-05-07T03:03:46;9.73;;;8.07;;
3487;SDS011;38546;48.170;11.724;2023-05-07T03:06:35;13.73;;;9.80;;
3487;SDS011;38546;48.170;11.724;2023-05-07T03:09:24;10.27;;;8.37;;
3487;SDS011;38546;48.170;11.724;2023-05-07T03:12:13;10.80;;;8.50;;
3487;SDS011;38546;48.170;11.724;2023-05-07T03:15:03;9.23;;;7.50;;
3487;SDS011;38546;48.170;11.724;2023-05-07T03:17:54;14.50;;;7.80;;
3487;SDS011;38546;48.170;11.724;2023-05-07T03:20:44;8.70;;;7.80;;
3487;SDS011;38546;48.170;11.724;2023-05-07T03:23:33;9.03;;;7.40;;
3487;SDS011;38546;48.170;11.724;2023-05-07T03:26:22;10.47;;;8.60;;
3487;SDS011;38546;48.170;11.724;2023-05-07T03:29:11;11.83;;;8.77;;
3487;SDS011;38546;48.170;11.724;2023-05-07T03:32:00;10.70;;;8.70;;
3487;SDS011;38546;48.170;11.724;2023-05-07T03:34:49;10.43;;;7.70;;
3487;SDS011;38546;48.170;11.724;2023-05-07T03:37:39;10.97;;;8.10;;
3487;SDS011;38546;48.170;11.724;2023-05-07T03:40:29;10.73;;;8.17;;
3487;SDS011;38546;48.170;11.724;2023-05-07T03:43:19;12.03;;;8.70;;
3487;SDS011;38546;48.170;11.724;2023-05-07T03:46:08;8.53;;;7.63;;
3487;SDS011;38546;48.170;11.724;2023-05-07T03:48:58;11.03;;;8.53;;
3487;SDS011;38546;48.170;11.724;2023-05-07T03:51:47;10.00;;;8.03;;
3487;SDS011;38546;48.170;11.724;2023-05-07T03:54:37;12.33;;;8.57;;
3487;SDS011;38546;48.170;11.724;2023-05-07T03:57:26;10.77;;;8.53;;
3487;SDS011;38546;48.170;11.724;2023-05-07T04:00:15;11.37;;;8.50;;
3487;SDS011;38546;48.170;11.724;2023-05-07T04:03:05;8.27;;;7.40;;
3487;SDS011;38546;48.170;11.724;2023-05-07T04:05:55;9.23;;;7.23;;
3487;SDS011;38546;48.170;11.724;2023-05-07T04:08:44;9.53;;;7.33;;
3487;SDS011;38546;48.170;11.724;2023-05-07T04:11:34;9.20;;;7.30;;
3487;SDS011;38546;48.170;11.724;2023-05-07T04:14:24;9.13;;;8.00;;
3487;SDS011;38546;48.170;11.724;2023-05-07T04:17:13;9.80;;;8.43;;
3487;SDS011;38546;48.170;11.724;2023-05-07T04:20:03;10.00;;;7.80;;
3487;SDS011;38546;48.170;11.724;2023-05-07T04:22:55;10.57;;;8.50;;
3487;SDS011;38546;48.170;11.724;2023-05-07T04:25:44;10.97;;;8.47;;
3487;SDS011;38546;48.170;11.724;2023-05-07T04:28:34;14.80;;;7.97;;
3487;SDS011;38546;48.170;11.724;2023-05-07T04:31:23;11.10;;;8.47;;
3487;SDS011;38546;48.170;11.724;2023-05-07T04:34:12;10.50;;;7.87;;
3487;SDS011;38546;48.170;11.724;2023-05-07T04:37:02;10.47;;;8.43;;
3487;SDS011;38546;48.170;11.724;2023-05-07T04:39:52;10.73;;;8.43;;
3487;SDS011;38546;48.170;11.724;2023-05-07T04:42:41;10.17;;;7.70;;
3487;SDS011;38546;48.170;11.724;2023-05-07T04:45:30;10.03;;;7.70;;
3487;SDS011;38546;48.170;11.724;2023-05-07T04:48:19;9.73;;;7.83;;
3487;SDS011;38546;48.170;11.724;2023-05-07T04:51:09;14.27;;;9.37;;
3487;SDS011;38546;48.170;11.724;2023-05-07T04:53:58;12.33;;;9.77;;
3487;SDS011;38546;48.170;11.724;2023-05-07T04:56:47;13.80;;;10.03;;
3487;SDS011;38546;48.170;11.724;2023-05-07T04:59:37;12.00;;;10.30;;
3487;SDS011;38546;48.170;11.724;2023-05-07T05:02:26;13.20;;;10.20;;
3487;SDS011;38546;48.170;11.724;2023-05-07T05:05:15;12.57;;;10.53;;
3487;SDS011;38546;48.170;11.724;2023-05-07T05:08:04;15.90;;;11.40;;
3487;SDS011;38546;48.170;11.724;2023-05-07T05:10:54;11.87;;;10.23;;
3487;SDS011;38546;48.170;11.724;2023-05-07T05:13:44;17.30;;;11.27;;
3487;SDS011;38546;48.170;11.724;2023-05-07T05:16:33;12.10;;;9.33;;
3487;SDS011;38546;48.170;11.724;2023-05-07T05:19:22;12.53;;;8.70;;
3487;SDS011;38546;48.170;11.724;2023-05-07T05:22:11;10.90;;;8.80;;
3487;SDS011;38546;48.170;11.724;2023-05-07T05:25:00;10.07;;;7.80;;
3487;SDS011;38546;48.170;11.724;2023-05-07T05:27:50;14.67;;;9.27;;
3487;SDS011;38546;48.170;11.724;2023-05-07T05:30:39;12.97;;;10.20;;
3487;SDS011;38546;48.170;11.724;2023-05-07T05:33:29;13.73;;;10.13;;
3487;SDS011;38546;48.170;11.724;2023-05-07T05:36:18;12.97;;;9.90;;
3487;SDS011;38546;48.170;11.724;2023-05-07T05:39:07;15.00;;;10.87;;
3487;SDS011;38546;48.170;11.724;2023-05-07T05:41:57;13.37;;;9.23;;
3487;SDS011;38546;48.170;11.724;2023-05-07T05:44:46;14.30;;;10.27;;
3487;SDS011;38546;48.170;11.724;2023-05-07T05:47:36;15.23;;;11.60;;
3487;SDS011;38546;48.170;11.724;2023-05-07T05:50:27;16.47;;;11.03;;
3487;SDS011;38546;48.170;11.724;2023-05-07T05:53:16;16.60;;;11.17;;
3487;SDS011;38546;48.170;11.724;2023-05-07T05:56:05;16.50;;;11.60;;
3487;SDS011;38546;48.170;11.724;2023-05-07T05:58:55;15.73;;;11.77;;
3487;SDS011;38546;48.170;11.724;2023-05-07T06:01:44;19.70;;;12.53;;
3487;SDS011;38546;48.170;11.724;2023-05-07T06:04:34;14.37;;;10.70;;
3487;SDS011;38546;48.170;11.724;2023-05-07T06:07:23;16.97;;;11.57;;
3487;SDS011;38546;48.170;11.724;2023-05-07T06:10:12;12.73;;;10.10;;
3487;SDS011;38546;48.170;11.724;2023-05-07T06:13:01;10.33;;;9.23;;
3487;SDS011;38546;48.170;11.724;2023-05-07T06:15:50;15.07;;;10.63;;
3487;SDS011;38546;48.170;11.724;2023-05-07T06:18:39;12.23;;;9.30;;
3487;SDS011;38546;48.170;11.724;2023-05-07T06:21:28;15.70;;;8.60;;
3487;SDS011;38546;48.170;11.724;2023-05-07T06:24:19;10.93;;;8.80;;
3487;SDS011;38546;48.170;11.724;2023-05-07T06:27:08;12.13;;;8.77;;
3487;SDS011;38546;48.170;11.724;2023-05-07T06:29:58;8.60;;;7.70;;
3487;SDS011;38546;48.170;11.724;2023-05-07T06:32:47;10.93;;;7.27;;
3487;SDS011;38546;48.170;11.724;2023-05-07T06:35:36;7.97;;;6.80;;
3487;SDS011;38546;48.170;11.724;2023-05-07T06:38:25;7.33;;;6.57;;
3487;SDS011;38546;48.170;11.724;2023-05-07T06:41:14;7.00;;;5.83;;
3487;SDS011;38546;48.170;11.724;2023-05-07T06:44:04;6.60;;;6.00;;
3487;SDS011;38546;48.170;11.724;2023-05-07T06:46:53;7.47;;;6.07;;
3487;SDS011;38546;48.170;11.724;2023-05-07T06:49:42;6.33;;;5.80;;
3487;SDS011;38546;48.170;11.724;2023-05-07T06:52:30;7.73;;;6.53;;
3487;SDS011;38546;48.170;11.724;2023-05-07T06:55:20;7.27;;;5.80;;
3487;SDS011;38546;48.170;11.724;2023-05-07T06:58:09;5.30;;;4.63;;
3487;SDS011;38546;48.170;11.724;2023-05-07T07:00:58;6.10;;;5.50;;
3487;SDS011;38546;48.170;11.724;2023-05-07T07:03:46;5.70;;;5.27;;
3487;SDS011;38546;48.170;11.724;2023-05-07T07:06:36;5.70;;;5.20;;
3487;SDS011;38546;48.170;11.724;2023-05-07T07:09:25;6.03;;;5.47;;
3487;SDS011;38546;48.170;11.724;2023-05-07T07:12:13;5.17;;;4.77;;
3487;SDS011;38546;48.170;11.724;2023-05-07T07:15:03;6.57;;;5.33;;
3487;SDS011;38546;48.170;11.724;2023-05-07T07:17:52;5.67;;;4.77;;
3487;SDS011;38546;48.170;11.724;2023-05-07T07:20:41;4.77;;;4.37;;
3487;SDS011;38546;48.170;11.724;2023-05-07T07:23:33;7.63;;;6.33;;
3487;SDS011;38546;48.170;11.724;2023-05-07T07:26:21;4.80;;;4.40;;
3487;SDS011;38546;48.170;11.724;2023-05-07T07:29:11;4.90;;;4.40;;
3487;SDS011;38546;48.170;11.724;2023-05-07T07:32:01;11.47;;;5.50;;
3487;SDS011;38546;48.170;11.724;2023-05-07T07:34:50;5.63;;;5.20;;
3487;SDS011;38546;48.170;11.724;2023-05-07T07:37:38;4.87;;;4.57;;
3487;SDS011;38546;48.170;11.724;2023-05-07T07:40:27;5.20;;;4.80;;
3487;SDS011;38546;48.170;11.724;2023-05-07T07:43:17;5.70;;;5.20;;
3487;SDS011;38546;48.170;11.724;2023-05-07T07:46:06;5.30;;;4.90;;
3487;SDS011;38546;48.170;11.724;2023-05-07T07:48:55;4.93;;;4.43;;
3487;SDS011;38546;48.170;11.724;2023-05-07T07:51:47;5.63;;;4.80;;
3487;SDS011;38546;48.170;11.724;2023-05-07T07:54:36;5.17;;;4.77;;
3487;SDS011;38546;48.170;11.724;2023-05-07T07:57:25;4.90;;;4.50;;
3487;SDS011;38546;48.170;11.724;2023-05-07T08:00:14;4.50;;;4.10;;
3487;SDS011;38546;48.170;11.724;2023-05-07T08:03:04;5.33;;;4.30;;
3487;SDS011;38546;48.170;11.724;2023-05-07T08:05:55;5.33;;;4.93;;
3487;SDS011;38546;48.170;11.724;2023-05-07T08:08:45;4.60;;;4.20;;
3487;SDS011;38546;48.170;11.724;2023-05-07T08:11:34;4.73;;;3.90;;
3487;SDS011;38546;48.170;11.724;2023-05-07T08:14:24;5.97;;;4.80;;
3487;SDS011;38546;48.170;11.724;2023-05-07T08:17:13;4.20;;;3.90;;
3487;SDS011;38546;48.170;11.724;2023-05-07T08:20:05;4.70;;;4.00;;
3487;SDS011;38546;48.170;11.724;2023-05-07T08:22:55;6.53;;;5.13;;
3487;SDS011;38546;48.170;11.724;2023-05-07T08:25:44;5.90;;;5.30;;
3487;SDS011;38546;48.170;11.724;2023-05-07T08:28:34;6.23;;;5.30;;
3487;SDS011;38546;48.170;11.724;2023-05-07T08:31:24;4.97;;;3.83;;
3487;SDS011;38546;48.170;11.724;2023-05-07T08:34:14;6.13;;;5.50;;
3487;SDS011;38546;48.170;11.724;2023-05-07T08:37:03;6.60;;;5.77;;
3487;SDS011;38546;48.170;11.724;2023-05-07T08:39:52;6.80;;;6.20;;
3487;SDS011;38546;48.170;11.724;2023-05-07T08:42:42;6.50;;;5.80;;
3487;SDS011;38546;48.170;11.724;2023-05-07T08:45:37;6.43;;;5.83;;
3487;SDS011;38546;48.170;11.724;2023-05-07T08:48:29;6.50;;;5.90;;
3487;SDS011;38546;48.170;11.724;2023-05-07T08:51:20;6.70;;;6.00;;
3487;SDS011;38546;48.170;11.724;2023-05-07T08:54:10;10.13;;;7.50;;
3487;SDS011;38546;48.170;11.724;2023-05-07T08:57:00;6.40;;;5.60;;
3487;SDS011;38546;48.170;11.724;2023-05-07T08:59:50;7.40;;;5.30;;
3487;SDS011;38546;48.170;11.724;2023-05-07T09:02:39;5.80;;;5.30;;
3487;SDS011;38546;48.170;11.724;2023-05-07T09:05:29;5.40;;;5.00;;
3487;SDS011;38546;48.170;11.724;2023-05-07T09:08:19;5.20;;;4.80;;
3487;SDS011;38546;48.170;11.724;2023-05-07T09:11:14;6.13;;;5.60;;
3487;SDS011;38546;48.170;11.724;2023-05-07T09:14:04;9.03;;;5.90;;
3487;SDS011;38546;48.170;11.724;2023-05-07T09:16:54;6.73;;;6.03;;
3487;SDS011;38546;48.170;11.724;2023-05-07T09:19:46;5.90;;;5.40;;
3487;SDS011;38546;48.170;11.724;2023-05-07T09:22:37;11.50;;;7.00;;
3487;SDS011;38546;48.170;11.724;2023-05-07T09:25:30;7.00;;;6.30;;
3487;SDS011;38546;48.170;11.724;2023-05-07T09:28:21;4.40;;;4.03;;
3487;SDS011;38546;48.170;11.724;2023-05-07T09:31:11;5.80;;;4.43;;
3487;SDS011;38546;48.170;11.724;2023-05-07T09:34:00;6.43;;;5.20;;
3487;SDS011;38546;48.170;11.724;2023-05-07T09:36:49;5.00;;;4.20;;
3487;SDS011;38546;48.170;11.724;2023-05-07T09:39:46;5.73;;;5.23;;
3487;SDS011;38546;48.170;11.724;2023-05-07T09:42:37;6.10;;;4.70;;
3487;SDS011;38546;48.170;11.724;2023-05-07T09:45:27;5.00;;;4.23;;
3487;SDS011;38546;48.170;11.724;2023-05-07T09:48:17;4.30;;;4.00;;
3487;SDS011;38546;48.170;11.724;2023-05-07T09:51:21;4.00;;;3.70;;
3487;SDS011;38546;48.170;11.724;2023-05-07T09:54:17;3.27;;;3.07;;
3487;SDS011;38546;48.170;11.724;2023-05-07T09:57:07;5.80;;;5.30;;
3487;SDS011;38546;48.170;11.724;2023-05-07T10:00:01;5.97;;;4.50;;
3487;SDS011;38546;48.170;11.724;2023-05-07T10:02:55;4.53;;;4.23;;
3487;SDS011;38546;48.170;11.724;2023-05-07T10:05:46;5.00;;;4.60;;
3487;SDS011;38546;48.170;11.724;2023-05-07T10:08:36;4.00;;;3.70;;
3487;SDS011;38546;48.170;11.724;2023-05-07T10:11:26;5.50;;;4.97;;
3487;SDS011;38546;48.170;11.724;2023-05-07T10:14:16;7.10;;;5.07;;
3487;SDS011;38546;48.170;11.724;2023-05-07T10:17:06;5.30;;;4.67;;
3487;SDS011;38546;48.170;11.724;2023-05-07T10:19:57;6.43;;;5.10;;
3487;SDS011;38546;48.170;11.724;2023-05-07T10:22:47;8.70;;;5.53;;
3487;SDS011;38546;48.170;11.724;2023-05-07T10:25:38;5.30;;;4.77;;
3487;SDS011;38546;48.170;11.724;2023-05-07T10:28:28;10.20;;;5.60;;
3487;SDS011;38546;48.170;11.724;2023-05-07T10:31:35;6.27;;;5.23;;
3487;SDS011;38546;48.170;11.724;2023-05-07T10:34:54;6.87;;;5.90;;
3487;SDS011;38546;48.170;11.724;2023-05-07T10:37:47;6.00;;;5.40;;
3487;SDS011;38546;48.170;11.724;2023-05-07T10:40:37;7.30;;;6.57;;
3487;SDS011;38546;48.170;11.724;2023-05-07T10:43:37;10.93;;;7.57;;
3487;SDS011;38546;48.170;11.724;2023-05-07T10:46:32;6.73;;;6.10;;
3487;SDS011;38546;48.170;11.724;2023-05-07T10:49:24;9.40;;;7.87;;
3487;SDS011;38546;48.170;11.724;2023-05-07T10:52:17;6.90;;;6.20;;
3487;SDS011;38546;48.170;11.724;2023-05-07T10:55:18;6.90;;;6.30;;
3487;SDS011;38546;48.170;11.724;2023-05-07T10:58:23;6.03;;;5.43;;
3487;SDS011;38546;48.170;11.724;2023-05-07T11:01:17;8.47;;;6.00;;
3487;SDS011;38546;48.170;11.724;2023-05-07T11:08:12;8.00;;;6.83;;
3487;SDS011;38546;48.170;11.724;2023-05-07T11:11:01;6.93;;;6.23;;
3487;SDS011;38546;48.170;11.724;2023-05-07T11:13:51;7.70;;;6.90;;
3487;SDS011;38546;48.170;11.724;2023-05-07T11:16:41;8.90;;;6.77;;
3487;SDS011;38546;48.170;11.724;2023-05-07T11:22:44;9.07;;;6.03;;
3487;SDS011;38546;48.170;11.724;2023-05-07T11:25:34;7.70;;;7.00;;
3487;SDS011;38546;48.170;11.724;2023-05-07T11:28:24;6.67;;;6.07;;
3487;SDS011;38546;48.170;11.724;2023-05-07T11:31:13;6.53;;;5.97;;
3487;SDS011;38546;48.170;11.724;2023-05-07T11:34:13;6.23;;;5.63;;
3487;SDS011;38546;48.170;11.724;2023-05-07T11:37:03;7.20;;;6.50;;
3487;SDS011;38546;48.170;11.724;2023-05-07T11:40:06;10.00;;;6.07;;
3487;SDS011;38546;48.170;11.724;2023-05-07T11:42:58;7.70;;;5.77;;
3487;SDS011;38546;48.170;11.724;2023-05-07T11:45:48;8.27;;;5.90;;
3487;SDS011;38546;48.170;11.724;2023-05-07T11:48:38;6.87;;;5.47;;
3487;SDS011;38546;48.170;11.724;2023-05-07T11:51:28;6.03;;;4.90;;
3487;SDS011;38546;48.170;11.724;2023-05-07T11:54:18;5.60;;;4.70;;
3487;SDS011;38546;48.170;11.724;2023-05-07T11:57:14;6.93;;;5.17;;
3487;SDS011;38546;48.170;11.724;2023-05-07T12:00:04;5.23;;;4.70;;
3487;SDS011;38546;48.170;11.724;2023-05-07T12:02:54;5.03;;;4.40;;
3487;SDS011;38546;48.170;11.724;2023-05-07T12:05:44;5.40;;;4.93;;
3487;SDS011;38546;48.170;11.724;2023-05-07T12:08:38;4.73;;;4.37;;
3487;SDS011;38546;48.170;11.724;2023-05-07T12:11:29;10.50;;;5.60;;
3487;SDS011;38546;48.170;11.724;2023-05-07T12:14:19;5.23;;;4.80;;
3487;SDS011;38546;48.170;11.724;2023-05-07T12:17:09;4.87;;;4.47;;
3487;SDS011;38546;48.170;11.724;2023-05-07T12:20:03;5.17;;;4.67;;
3487;SDS011;38546;48.170;11.724;2023-05-07T12:22:54;5.07;;;4.67;;
3487;SDS011;38546;48.170;11.724;2023-05-07T12:25:44;5.03;;;4.27;;
3487;SDS011;38546;48.170;11.724;2023-05-07T12:28:37;5.47;;;4.10;;
3487;SDS011;38546;48.170;11.724;2023-05-07T12:31:27;4.80;;;4.17;;
3487;SDS011;38546;48.170;11.724;2023-05-07T12:34:17;4.00;;;3.70;;
3487;SDS011;38546;48.170;11.724;2023-05-07T12:37:06;10.83;;;4.10;;
3487;SDS011;38546;48.170;11.724;2023-05-07T12:40:08;5.17;;;4.27;;
3487;SDS011;38546;48.170;11.724;2023-05-07T12:42:59;3.80;;;3.43;;
3487;SDS011;38546;48.170;11.724;2023-05-07T12:45:49;3.30;;;3.10;;
3487;SDS011;38546;48.170;11.724;2023-05-07T12:48:44;3.13;;;2.93;;
3487;SDS011;38546;48.170;11.724;2023-05-07T12:51:35;3.07;;;2.87;;
3487;SDS011;38546;48.170;11.724;2023-05-07T12:54:31;4.17;;;3.13;;
3487;SDS011;38546;48.170;11.724;2023-05-07T12:57:22;3.20;;;3.00;;
3487;SDS011;38546;48.170;11.724;2023-05-07T13:00:12;3.20;;;3.00;;
3487;SDS011;38546;48.170;11.724;2023-05-07T13:03:03;4.60;;;3.90;;
3487;SDS011;38546;48.170;11.724;2023-05-07T13:05:54;3.40;;;3.10;;
3487;SDS011;38546;48.170;11.724;2023-05-07T13:08:46;3.70;;;3.40;;
3487;SDS011;38546;48.170;11.724;2023-05-07T13:11:35;3.50;;;3.20;;
3487;SDS011;38546;48.170;11.724;2023-05-07T13:14:24;3.83;;;3.30;;
3487;SDS011;38546;48.170;11.724;2023-05-07T13:17:13;5.57;;;3.90;;
3487;SDS011;38546;48.170;11.724;2023-05-07T13:20:03;3.70;;;3.50;;
3487;SDS011;38546;48.170;11.724;2023-05-07T13:22:54;3.97;;;3.50;;
3487;SDS011;38546;48.170;11.724;2023-05-07T13:25:43;3.97;;;3.67;;
3487;SDS011;38546;48.170;11.724;2023-05-07T13:28:33;4.03;;;3.63;;
3487;SDS011;38546;48.170;11.724;2023-05-07T13:31:22;4.70;;;4.30;;
3487;SDS011;38546;48.170;11.724;2023-05-07T13:34:13;4.37;;;3.97;;
3487;SDS011;38546;48.170;11.724;2023-05-07T13:37:02;4.40;;;3.97;;
3487;SDS011;38546;48.170;11.724;2023-05-07T13:39:51;5.17;;;4.67;;
3487;SDS011;38546;48.170;11.724;2023-05-07T13:42:40;4.60;;;4.20;;
3487;SDS011;38546;48.170;11.724;2023-05-07T13:45:29;3.70;;;3.50;;
3487;SDS011;38546;48.170;11.724;2023-05-07T13:48:19;4.77;;;4.37;;
3487;SDS011;38546;48.170;11.724;2023-05-07T13:51:08;5.83;;;5.33;;
3487;SDS011;38546;48.170;11.724;2023-05-07T13:53:58;5.00;;;4.57;;
3487;SDS011;38546;48.170;11.724;2023-05-07T13:56:47;6.30;;;5.70;;
3487;SDS011;38546;48.170;11.724;2023-05-07T13:59:37;4.87;;;4.47;;
3487;SDS011;38546;48.170;11.724;2023-05-07T14:02:26;5.03;;;4.63;;
3487;SDS011;38546;48.170;11.724;2023-05-07T14:05:16;4.73;;;4.33;;
3487;SDS011;38546;48.170;11.724;2023-05-07T14:08:05;4.50;;;4.20;;
3487;SDS011;38546;48.170;11.724;2023-05-07T14:10:56;8.10;;;4.67;;
3487;SDS011;38546;48.170;11.724;2023-05-07T14:13:45;6.43;;;5.70;;
3487;SDS011;38546;48.170;11.724;2023-05-07T14:16:34;5.37;;;4.40;;
3487;SDS011;38546;48.170;11.724;2023-05-07T14:19:24;5.53;;;5.07;;
3487;SDS011;38546;48.170;11.724;2023-05-07T14:22:13;7.70;;;5.50;;
3487;SDS011;38546;48.170;11.724;2023-05-07T14:25:04;6.00;;;5.23;;
3487;SDS011;38546;48.170;11.724;2023-05-07T14:27:55;6.50;;;5.40;;
3487;SDS011;38546;48.170;11.724;2023-05-07T14:30:44;5.23;;;4.83;;
3487;SDS011;38546;48.170;11.724;2023-05-07T14:33:34;6.13;;;4.97;;
3487;SDS011;38546;48.170;11.724;2023-05-07T14:36:23;5.50;;;5.00;;
3487;SDS011;38546;48.170;11.724;2023-05-07T14:39:14;4.73;;;4.33;;
3487;SDS011;38546;48.170;11.724;2023-05-07T14:42:03;5.30;;;4.90;;
3487;SDS011;38546;48.170;11.724;2023-05-07T14:44:53;4.50;;;4.10;;
3487;SDS011;38546;48.170;11.724;2023-05-07T14:47:42;5.77;;;5.27;;
3487;SDS011;38546;48.170;11.724;2023-05-07T14:50:31;5.10;;;4.50;;
3487;SDS011;38546;48.170;11.724;2023-05-07T14:53:20;4.40;;;4.10;;
3487;SDS011;38546;48.170;11.724;2023-05-07T14:56:10;4.23;;;3.93;;
3487;SDS011;38546;48.170;11.724;2023-05-07T14:58:59;5.00;;;4.50;;
3487;SDS011;38546;48.170;11.724;2023-05-07T15:01:49;8.07;;;4.80;;
3487;SDS011;38546;48.170;11.724;2023-05-07T15:04:38;4.57;;;4.27;;
3487;SDS011;38546;48.170;11.724;2023-05-07T15:07:34;7.20;;;4.37;;
3487;SDS011;38546;48.170;11.724;2023-05-07T15:10:23;4.20;;;3.77;;
3487;SDS011;38546;48.170;11.724;2023-05-07T15:13:12;4.30;;;4.00;;
3487;SDS011;38546;48.170;11.724;2023-05-07T15:16:02;9.90;;;4.50;;
3487;SDS011;38546;48.170;11.724;2023-05-07T15:18:51;4.10;;;3.80;;
3487;SDS011;38546;48.170;11.724;2023-05-07T15:21:40;4.47;;;4.20;;
3487;SDS011;38546;48.170;11.724;2023-05-07T15:24:30;4.57;;;4.17;;
3487;SDS011;38546;48.170;11.724;2023-05-07T15:27:19;4.83;;;4.43;;
3487;SDS011;38546;48.170;11.724;2023-05-07T15:30:09;4.87;;;4.47;;
3487;SDS011;38546;48.170;11.724;2023-05-07T15:33:01;4.17;;;3.87;;
3487;SDS011;38546;48.170;11.724;2023-05-07T15:35:51;5.90;;;4.43;;
3487;SDS011;38546;48.170;11.724;2023-05-07T15:38:41;4.10;;;3.80;;
3487;SDS011;38546;48.170;11.724;2023-05-07T15:41:29;3.93;;;3.63;;
3487;SDS011;38546;48.170;11.724;2023-05-07T15:44:18;3.30;;;3.10;;
3487;SDS011;38546;48.170;11.724;2023-05-07T15:47:08;4.93;;;3.80;;
3487;SDS011;38546;48.170;11.724;2023-05-07T15:49:57;3.87;;;3.57;;
3487;SDS011;38546;48.170;11.724;2023-05-07T15:52:46;3.70;;;3.40;;
3487;SDS011;38546;48.170;11.724;2023-05-07T15:55:35;5.23;;;3.50;;
3487;SDS011;38546;48.170;11.724;2023-05-07T15:58:24;3.37;;;3.13;;
3487;SDS011;38546;48.170;11.724;2023-05-07T16:01:14;4.13;;;3.43;;
3487;SDS011;38546;48.170;11.724;2023-05-07T16:04:03;4.53;;;4.17;;
3487;SDS011;38546;48.170;11.724;2023-05-07T16:06:55;5.13;;;3.60;;
3487;SDS011;38546;48.170;11.724;2023-05-07T16:09:44;3.70;;;3.40;;
3487;SDS011;38546;48.170;11.724;2023-05-07T16:12:33;3.80;;;3.60;;
3487;SDS011;38546;48.170;11.724;2023-05-07T16:15:23;4.50;;;3.70;;
3487;SDS011;38546;48.170;11.724;2023-05-07T16:18:12;5.47;;;3.63;;
3487;SDS011;38546;48.170;11.724;2023-05-07T16:21:04;3.50;;;3.30;;
3487;SDS011;38546;48.170;11.724;2023-05-07T16:23:54;3.60;;;3.40;;
3487;SDS011;38546;48.170;11.724;2023-05-07T16:26:43;3.47;;;3.27;;
3487;SDS011;38546;48.170;11.724;2023-05-07T16:29:31;3.67;;;3.37;;
3487;SDS011;38546;48.170;11.724;2023-05-07T16:32:20;3.50;;;3.30;;
3487;SDS011;38546;48.170;11.724;2023-05-07T16:35:10;3.80;;;3.50;;
3487;SDS011;38546;48.170;11.724;2023-05-07T16:37:59;5.23;;;3.67;;
3487;SDS011;38546;48.170;11.724;2023-05-07T16:40:48;3.70;;;3.40;;
3487;SDS011;38546;48.170;11.724;2023-05-07T16:43:37;4.70;;;4.20;;
3487;SDS011;38546;48.170;11.724;2023-05-07T16:46:26;7.80;;;3.90;;
3487;SDS011;38546;48.170;11.724;2023-05-07T16:49:15;3.83;;;3.53;;
3487;SDS011;38546;48.170;11.724;2023-05-07T16:52:04;4.20;;;3.80;;
3487;SDS011;38546;48.170;11.724;2023-05-07T16:54:54;6.13;;;4.10;;
3487;SDS011;38546;48.170;11.724;2023-05-07T16:57:48;3.73;;;3.43;;
3487;SDS011;38546;48.170;11.724;2023-05-07T17:00:37;4.70;;;4.20;;
3487;SDS011;38546;48.170;11.724;2023-05-07T17:03:27;4.07;;;3.60;;
3487;SDS011;38546;48.170;11.724;2023-05-07T17:06:17;7.40;;;5.43;;
3487;SDS011;38546;48.170;11.724;2023-05-07T17:09:06;4.77;;;4.37;;